sensor_id;sensor_type;location;lat;lon;timestamp;pressure;altitude;pressure_sealevel;temperature;humidity
64632;BME280;58358;50.936;0.246;2023-03-01T00:00:28;102610.15;;;1.43;72.82
64632;BME280;58358;50.936;0.246;2023-03-01T00:02:53;102607.22;;;-0.16;72.60
64632;BME280;58358;50.936;0.246;2023-03-01T00:05:18;102610.03;;;0.79;72.87
64632;BME280;58358;50.936;0.246;2023-03-01T00:07:43;102610.12;;;1.14;72.58
64632;BME280;58358;50.936;0.246;2023-03-01T00:10:10;102605.38;;;0.40;73.25
64632;BME280;58358;50.936;0.246;2023-03-01T00:12:34;102606.58;;;1.38;72.15
64632;BME280;58358;50.936;0.246;2023-03-01T00:14:59;102606.24;;;1.48;71.60
64632;BME280;58358;50.936;0.246;2023-03-01T00:17:25;102602.93;;;0.85;73.15
64632;BME280;58358;50.936;0.246;2023-03-01T00:19:50;102600.70;;;0.78;73.49
64632;BME280;58358;50.936;0.246;2023-03-01T00:22:15;102599.39;;;0.93;72.99
64632;BME280;58358;50.936;0.246;2023-03-01T00:24:41;102598.04;;;-0.71;76.67
64632;BME280;58358;50.936;0.246;2023-03-01T00:27:07;102595.70;;;0.32;75.57
64632;BME280;58358;50.936;0.246;2023-03-01T00:29:32;102600.53;;;-0.34;76.87
64632;BME280;58358;50.936;0.246;2023-03-01T00:31:58;102599.68;;;0.12;76.63
64632;BME280;58358;50.936;0.246;2023-03-01T00:34:23;102601.95;;;-0.61;79.42
64632;BME280;58358;50.936;0.246;2023-03-01T00:36:49;102604.00;;;-0.14;77.76
64632;BME280;58358;50.936;0.246;2023-03-01T00:39:15;102604.68;;;-0.83;78.66
64632;BME280;58358;50.936;0.246;2023-03-01T00:41:40;102605.72;;;-0.14;78.63
64632;BME280;58358;50.936;0.246;2023-03-01T00:44:06;102599.55;;;-0.30;78.49
64632;BME280;58358;50.936;0.246;2023-03-01T00:46:32;102597.09;;;-1.22;80.41
64632;BME280;58358;50.936;0.246;2023-03-01T00:48:57;102594.11;;;-0.75;78.98
64632;BME280;58358;50.936;0.246;2023-03-01T00:51:25;102592.36;;;-1.23;81.83
64632;BME280;58358;50.936;0.246;2023-03-01T00:53:50;102594.32;;;-0.97;79.13
64632;BME280;58358;50.936;0.246;2023-03-01T00:56:14;102593.88;;;-1.20;80.62
64632;BME280;58358;50.936;0.246;2023-03-01T00:58:40;102598.22;;;-1.06;79.59
64632;BME280;58358;50.936;0.246;2023-03-01T01:01:08;102596.47;;;-0.76;80.32
64632;BME280;58358;50.936;0.246;2023-03-01T01:03:31;102595.42;;;-1.18;80.25
64632;BME280;58358;50.936;0.246;2023-03-01T01:05:56;102598.59;;;0.16;76.64
64632;BME280;58358;50.936;0.246;2023-03-01T01:08:22;102599.64;;;-0.60;76.91
64632;BME280;58358;50.936;0.246;2023-03-01T01:10:47;102601.46;;;-0.41;78.14
64632;BME280;58358;50.936;0.246;2023-03-01T01:13:13;102605.20;;;0.14;75.61
64632;BME280;58358;50.936;0.246;2023-03-01T01:15:38;102600.33;;;0.53;75.17
64632;BME280;58358;50.936;0.246;2023-03-01T01:18:03;102599.88;;;-0.04;73.69
64632;BME280;58358;50.936;0.246;2023-03-01T01:20:29;102599.32;;;0.50;73.50
64632;BME280;58358;50.936;0.246;2023-03-01T01:22:55;102599.85;;;0.75;72.65
64632;BME280;58358;50.936;0.246;2023-03-01T01:25:20;102602.20;;;0.75;71.99
64632;BME280;58358;50.936;0.246;2023-03-01T01:27:45;102601.49;;;0.23;71.80
64632;BME280;58358;50.936;0.246;2023-03-01T01:30:11;102600.47;;;0.26;72.77
64632;BME280;58358;50.936;0.246;2023-03-01T01:32:36;102604.64;;;1.13;70.36
64632;BME280;58358;50.936;0.246;2023-03-01T01:35:02;102598.34;;;0.57;70.46
64632;BME280;58358;50.936;0.246;2023-03-01T01:37:27;102601.89;;;1.82;67.82
64632;BME280;58358;50.936;0.246;2023-03-01T01:39:52;102596.40;;;1.80;66.32
64632;BME280;58358;50.936;0.246;2023-03-01T01:42:18;102597.46;;;1.36;66.54
64632;BME280;58358;50.936;0.246;2023-03-01T01:44:46;102589.94;;;0.58;69.13
64632;BME280;58358;50.936;0.246;2023-03-01T01:47:14;102586.56;;;0.79;68.23
64632;BME280;58358;50.936;0.246;2023-03-01T01:49:37;102584.46;;;0.56;69.47
64632;BME280;58358;50.936;0.246;2023-03-01T01:52:05;102585.50;;;1.25;67.80
64632;BME280;58358;50.936;0.246;2023-03-01T01:54:28;102580.69;;;-0.50;72.37
64632;BME280;58358;50.936;0.246;2023-03-01T01:56:53;102576.73;;;-1.32;72.81
64632;BME280;58358;50.936;0.246;2023-03-01T01:59:16;102571.49;;;-0.98;74.74
64632;BME280;58358;50.936;0.246;2023-03-01T02:01:42;102565.58;;;-0.29;74.19
64632;BME280;58358;50.936;0.246;2023-03-01T02:04:06;102559.22;;;0.12;72.84
64632;BME280;58358;50.936;0.246;2023-03-01T02:06:35;102556.15;;;0.06;71.39
64632;BME280;58358;50.936;0.246;2023-03-01T02:09:00;102553.30;;;0.52;69.71
64632;BME280;58358;50.936;0.246;2023-03-01T02:11:22;102547.48;;;0.32;69.93
64632;BME280;58358;50.936;0.246;2023-03-01T02:13:48;102545.38;;;0.41;69.31
64632;BME280;58358;50.936;0.246;2023-03-01T02:16:14;102545.07;;;-0.33;72.91
64632;BME280;58358;50.936;0.246;2023-03-01T02:18:40;102543.13;;;0.74;70.05
64632;BME280;58358;50.936;0.246;2023-03-01T02:21:12;102535.74;;;0.49;67.61
64632;BME280;58358;50.936;0.246;2023-03-01T02:23:29;102538.33;;;0.85;66.52
64632;BME280;58358;50.936;0.246;2023-03-01T02:25:57;102534.55;;;-0.25;67.95
64632;BME280;58358;50.936;0.246;2023-03-01T02:28:25;102536.43;;;0.40;67.03
64632;BME280;58358;50.936;0.246;2023-03-01T02:30:48;102531.16;;;0.78;68.02
64632;BME280;58358;50.936;0.246;2023-03-01T02:33:11;102531.64;;;0.96;66.44
64632;BME280;58358;50.936;0.246;2023-03-01T02:35:38;102530.48;;;0.98;66.62
64632;BME280;58358;50.936;0.246;2023-03-01T02:38:02;102528.18;;;1.02;65.64
64632;BME280;58358;50.936;0.246;2023-03-01T02:40:28;102528.10;;;1.01;65.55
64632;BME280;58358;50.936;0.246;2023-03-01T02:42:56;102528.24;;;1.28;64.26
64632;BME280;58358;50.936;0.246;2023-03-01T02:45:19;102530.69;;;1.00;65.12
64632;BME280;58358;50.936;0.246;2023-03-01T02:47:44;102525.47;;;0.72;65.72
64632;BME280;58358;50.936;0.246;2023-03-01T02:50:18;102523.65;;;1.00;65.56
64632;BME280;58358;50.936;0.246;2023-03-01T02:52:43;102520.97;;;1.36;64.86
64632;BME280;58358;50.936;0.246;2023-03-01T02:55:06;102517.52;;;0.61;66.07
64632;BME280;58358;50.936;0.246;2023-03-01T02:57:28;102517.90;;;1.12;65.41
64632;BME280;58358;50.936;0.246;2023-03-01T02:59:54;102511.79;;;-0.83;69.26
64632;BME280;58358;50.936;0.246;2023-03-01T03:02:20;102511.83;;;0.78;66.21
64632;BME280;58358;50.936;0.246;2023-03-01T03:04:44;102507.92;;;0.91;65.74
64632;BME280;58358;50.936;0.246;2023-03-01T03:07:09;102499.24;;;-0.88;68.91
64632;BME280;58358;50.936;0.246;2023-03-01T03:09:34;102501.69;;;1.19;66.25
64632;BME280;58358;50.936;0.246;2023-03-01T03:11:59;102500.85;;;0.44;67.03
64632;BME280;58358;50.936;0.246;2023-03-01T03:14:25;102500.95;;;0.90;65.79
64632;BME280;58358;50.936;0.246;2023-03-01T03:16:50;102496.85;;;1.28;65.01
64632;BME280;58358;50.936;0.246;2023-03-01T03:19:17;102498.80;;;0.49;68.85
64632;BME280;58358;50.936;0.246;2023-03-01T03:21:42;102503.05;;;-0.10;70.10
64632;BME280;58358;50.936;0.246;2023-03-01T03:24:07;102498.84;;;-0.06;69.92
64632;BME280;58358;50.936;0.246;2023-03-01T03:26:32;102495.16;;;0.41;69.93
64632;BME280;58358;50.936;0.246;2023-03-01T03:28:58;102489.96;;;-0.86;71.99
64632;BME280;58358;50.936;0.246;2023-03-01T03:31:23;102492.08;;;0.78;69.88
64632;BME280;58358;50.936;0.246;2023-03-01T03:33:48;102491.08;;;0.17;71.15
64632;BME280;58358;50.936;0.246;2023-03-01T03:36:15;102492.35;;;-0.61;72.01
64632;BME280;58358;50.936;0.246;2023-03-01T03:38:39;102490.04;;;-0.50;72.52
64632;BME280;58358;50.936;0.246;2023-03-01T03:41:06;102486.60;;;0.32;73.21
64632;BME280;58358;50.936;0.246;2023-03-01T03:43:32;102485.53;;;1.13;69.15
64632;BME280;58358;50.936;0.246;2023-03-01T03:45:55;102482.76;;;0.97;68.71
64632;BME280;58358;50.936;0.246;2023-03-01T03:48:21;102482.05;;;0.76;69.69
64632;BME280;58358;50.936;0.246;2023-03-01T03:50:49;102481.06;;;1.36;68.91
64632;BME280;58358;50.936;0.246;2023-03-01T03:53:12;102472.42;;;1.93;66.30
64632;BME280;58358;50.936;0.246;2023-03-01T03:55:37;102472.16;;;1.39;67.45
64632;BME280;58358;50.936;0.246;2023-03-01T03:58:03;102464.43;;;1.22;65.83
64632;BME280;58358;50.936;0.246;2023-03-01T04:00:28;102469.13;;;1.19;67.27
64632;BME280;58358;50.936;0.246;2023-03-01T04:02:52;102465.29;;;1.41;66.96
64632;BME280;58358;50.936;0.246;2023-03-01T04:05:18;102463.01;;;0.75;68.73
64632;BME280;58358;50.936;0.246;2023-03-01T04:07:44;102461.51;;;0.32;70.76
64632;BME280;58358;50.936;0.246;2023-03-01T04:10:12;102454.09;;;-0.86;75.31
64632;BME280;58358;50.936;0.246;2023-03-01T04:12:35;102457.46;;;-0.32;73.83
64632;BME280;58358;50.936;0.246;2023-03-01T04:15:00;102458.56;;;0.80;70.52
64632;BME280;58358;50.936;0.246;2023-03-01T04:17:26;102456.23;;;0.37;70.34
64632;BME280;58358;50.936;0.246;2023-03-01T04:19:50;102449.39;;;1.30;68.90
64632;BME280;58358;50.936;0.246;2023-03-01T04:22:16;102444.88;;;1.80;66.71
64632;BME280;58358;50.936;0.246;2023-03-01T04:24:42;102440.71;;;1.91;65.39
64632;BME280;58358;50.936;0.246;2023-03-01T04:27:08;102437.37;;;1.54;65.54
64632;BME280;58358;50.936;0.246;2023-03-01T04:29:33;102434.78;;;1.89;64.50
64632;BME280;58358;50.936;0.246;2023-03-01T04:31:58;102434.30;;;1.76;63.91
64632;BME280;58358;50.936;0.246;2023-03-01T04:34:24;102431.62;;;2.07;63.70
64632;BME280;58358;50.936;0.246;2023-03-01T04:36:49;102429.78;;;1.57;64.96
64632;BME280;58358;50.936;0.246;2023-03-01T04:39:14;102431.00;;;1.09;64.98
64632;BME280;58358;50.936;0.246;2023-03-01T04:41:40;102424.68;;;1.29;66.37
64632;BME280;58358;50.936;0.246;2023-03-01T04:44:05;102420.71;;;1.51;66.11
64632;BME280;58358;50.936;0.246;2023-03-01T04:46:30;102417.53;;;1.01;67.48
64632;BME280;58358;50.936;0.246;2023-03-01T04:48:56;102418.64;;;1.01;67.99
64632;BME280;58358;50.936;0.246;2023-03-01T04:51:21;102414.72;;;-0.19;71.10
64632;BME280;58358;50.936;0.246;2023-03-01T04:53:47;102410.32;;;-0.25;71.65
64632;BME280;58358;50.936;0.246;2023-03-01T04:56:13;102405.51;;;-0.69;73.30
64632;BME280;58358;50.936;0.246;2023-03-01T04:58:37;102403.38;;;-0.65;76.26
64632;BME280;58358;50.936;0.246;2023-03-01T05:01:08;102405.39;;;0.37;71.97
64632;BME280;58358;50.936;0.246;2023-03-01T05:03:28;102402.27;;;1.36;68.63
64632;BME280;58358;50.936;0.246;2023-03-01T05:05:58;102400.74;;;1.47;66.76
64632;BME280;58358;50.936;0.246;2023-03-01T05:08:20;102399.76;;;1.69;68.09
64632;BME280;58358;50.936;0.246;2023-03-01T05:10:49;102399.70;;;0.66;71.58
64632;BME280;58358;50.936;0.246;2023-03-01T05:13:11;102404.52;;;0.90;69.86
64632;BME280;58358;50.936;0.246;2023-03-01T05:15:36;102404.39;;;1.08;69.40
64632;BME280;58358;50.936;0.246;2023-03-01T05:18:02;102410.95;;;0.59;70.94
64632;BME280;58358;50.936;0.246;2023-03-01T05:20:28;102407.42;;;1.24;70.75
64632;BME280;58358;50.936;0.246;2023-03-01T05:22:55;102409.45;;;0.44;70.18
64632;BME280;58358;50.936;0.246;2023-03-01T05:25:18;102403.74;;;1.26;71.44
64632;BME280;58358;50.936;0.246;2023-03-01T05:27:43;102403.19;;;0.76;70.17
64632;BME280;58358;50.936;0.246;2023-03-01T05:30:10;102407.89;;;0.67;71.02
64632;BME280;58358;50.936;0.246;2023-03-01T05:32:34;102399.71;;;1.41;68.25
64632;BME280;58358;50.936;0.246;2023-03-01T05:34:59;102399.03;;;0.71;70.11
64632;BME280;58358;50.936;0.246;2023-03-01T05:37:24;102404.93;;;-0.16;75.06
64632;BME280;58358;50.936;0.246;2023-03-01T05:39:49;102406.37;;;0.80;71.37
64632;BME280;58358;50.936;0.246;2023-03-01T05:42:14;102405.69;;;-0.13;72.02
64632;BME280;58358;50.936;0.246;2023-03-01T05:44:39;102405.06;;;-0.23;73.55
64632;BME280;58358;50.936;0.246;2023-03-01T05:47:05;102407.00;;;0.64;72.46
64632;BME280;58358;50.936;0.246;2023-03-01T05:49:31;102404.82;;;1.33;70.49
64632;BME280;58358;50.936;0.246;2023-03-01T05:51:55;102409.60;;;-0.25;73.80
64632;BME280;58358;50.936;0.246;2023-03-01T05:54:22;102410.23;;;0.01;73.98
64632;BME280;58358;50.936;0.246;2023-03-01T05:56:46;102409.55;;;0.90;72.19
64632;BME280;58358;50.936;0.246;2023-03-01T05:59:12;102410.76;;;0.03;75.35
64632;BME280;58358;50.936;0.246;2023-03-01T06:01:37;102408.62;;;-0.62;76.06
64632;BME280;58358;50.936;0.246;2023-03-01T06:04:03;102407.57;;;0.35;74.57
64632;BME280;58358;50.936;0.246;2023-03-01T06:06:28;102412.39;;;0.03;77.05
64632;BME280;58358;50.936;0.246;2023-03-01T06:08:53;102412.07;;;-0.37;81.29
64632;BME280;58358;50.936;0.246;2023-03-01T06:11:18;102415.46;;;-0.70;82.97
64632;BME280;58358;50.936;0.246;2023-03-01T06:13:43;102418.34;;;-0.06;82.48
64632;BME280;58358;50.936;0.246;2023-03-01T06:16:09;102420.92;;;0.02;82.62
64632;BME280;58358;50.936;0.246;2023-03-01T06:18:34;102424.29;;;-0.68;84.05
64632;BME280;58358;50.936;0.246;2023-03-01T06:20:59;102424.95;;;-0.16;82.76
64632;BME280;58358;50.936;0.246;2023-03-01T06:23:25;102423.18;;;0.12;79.75
64632;BME280;58358;50.936;0.246;2023-03-01T06:25:49;102422.27;;;0.37;80.33
64632;BME280;58358;50.936;0.246;2023-03-01T06:28:15;102418.14;;;-0.53;81.11
64632;BME280;58358;50.936;0.246;2023-03-01T06:30:40;102414.80;;;0.70;79.77
64632;BME280;58358;50.936;0.246;2023-03-01T06:33:05;102415.12;;;0.60;78.40
64632;BME280;58358;50.936;0.246;2023-03-01T06:35:31;102408.31;;;1.10;75.77
64632;BME280;58358;50.936;0.246;2023-03-01T06:37:57;102413.35;;;0.13;82.16
64632;BME280;58358;50.936;0.246;2023-03-01T06:40:21;102407.96;;;-0.61;87.22
64632;BME280;58358;50.936;0.246;2023-03-01T06:42:49;102411.73;;;-0.49;84.86
64632;BME280;58358;50.936;0.246;2023-03-01T06:45:12;102415.17;;;-0.07;84.07
64632;BME280;58358;50.936;0.246;2023-03-01T06:47:38;102410.02;;;-0.09;84.65
64632;BME280;58358;50.936;0.246;2023-03-01T06:50:04;102410.08;;;0.40;81.19
64632;BME280;58358;50.936;0.246;2023-03-01T06:52:30;102409.72;;;-1.04;88.49
64632;BME280;58358;50.936;0.246;2023-03-01T06:54:55;102407.37;;;-0.56;85.29
64632;BME280;58358;50.936;0.246;2023-03-01T06:57:21;102410.03;;;0.18;81.99
64632;BME280;58358;50.936;0.246;2023-03-01T06:59:46;102410.29;;;-0.07;85.23
64632;BME280;58358;50.936;0.246;2023-03-01T07:02:11;102410.72;;;0.12;82.19
64632;BME280;58358;50.936;0.246;2023-03-01T07:04:37;102408.80;;;0.05;85.66
64632;BME280;58358;50.936;0.246;2023-03-01T07:07:02;102408.50;;;1.08;79.72
64632;BME280;58358;50.936;0.246;2023-03-01T07:09:27;102401.95;;;1.27;77.31
64632;BME280;58358;50.936;0.246;2023-03-01T07:11:52;102402.67;;;1.56;76.79
64632;BME280;58358;50.936;0.246;2023-03-01T07:14:18;102404.07;;;0.82;80.20
64632;BME280;58358;50.936;0.246;2023-03-01T07:16:43;102403.72;;;0.70;79.64
64632;BME280;58358;50.936;0.246;2023-03-01T07:19:09;102403.02;;;0.39;81.43
64632;BME280;58358;50.936;0.246;2023-03-01T07:21:34;102400.55;;;0.64;83.68
64632;BME280;58358;50.936;0.246;2023-03-01T07:23:59;102401.29;;;-0.08;86.85
64632;BME280;58358;50.936;0.246;2023-03-01T07:26:25;102391.48;;;1.77;80.17
64632;BME280;58358;50.936;0.246;2023-03-01T07:28:50;102389.43;;;1.43;81.36
64632;BME280;58358;50.936;0.246;2023-03-01T07:31:15;102388.67;;;1.86;82.10
64632;BME280;58358;50.936;0.246;2023-03-01T07:33:42;102386.12;;;2.40;79.44
64632;BME280;58358;50.936;0.246;2023-03-01T07:36:08;102392.34;;;0.14;83.64
64632;BME280;58358;50.936;0.246;2023-03-01T07:38:33;102389.98;;;1.89;81.39
64632;BME280;58358;50.936;0.246;2023-03-01T07:40:59;102387.46;;;1.97;80.83
64632;BME280;58358;50.936;0.246;2023-03-01T07:43:23;102387.67;;;1.15;81.37
64632;BME280;58358;50.936;0.246;2023-03-01T07:45:48;102386.16;;;1.20;83.38
64632;BME280;58358;50.936;0.246;2023-03-01T07:48:14;102380.78;;;1.13;82.67
64632;BME280;58358;50.936;0.246;2023-03-01T07:50:40;102382.55;;;1.40;84.32
64632;BME280;58358;50.936;0.246;2023-03-01T07:53:05;102383.73;;;1.35;83.33
64632;BME280;58358;50.936;0.246;2023-03-01T07:55:30;102385.87;;;1.02;83.17
64632;BME280;58358;50.936;0.246;2023-03-01T07:57:55;102392.15;;;1.52;82.19
64632;BME280;58358;50.936;0.246;2023-03-01T08:00:21;102397.96;;;2.74;80.20
64632;BME280;58358;50.936;0.246;2023-03-01T08:02:46;102397.37;;;2.61;79.53
64632;BME280;58358;50.936;0.246;2023-03-01T08:05:11;102401.08;;;2.66;78.96
64632;BME280;58358;50.936;0.246;2023-03-01T08:07:37;102405.92;;;3.17;78.08
64632;BME280;58358;50.936;0.246;2023-03-01T08:10:02;102408.04;;;2.66;80.32
64632;BME280;58358;50.936;0.246;2023-03-01T08:12:27;102414.82;;;2.85;79.69
64632;BME280;58358;50.936;0.246;2023-03-01T08:14:52;102415.15;;;3.00;77.46
64632;BME280;58358;50.936;0.246;2023-03-01T08:17:17;102410.56;;;2.85;78.51
64632;BME280;58358;50.936;0.246;2023-03-01T08:19:43;102414.81;;;2.89;79.10
64632;BME280;58358;50.936;0.246;2023-03-01T08:22:09;102418.50;;;1.59;82.67
64632;BME280;58358;50.936;0.246;2023-03-01T08:24:34;102418.51;;;2.91;80.51
64632;BME280;58358;50.936;0.246;2023-03-01T08:26:59;102417.32;;;2.59;81.10
64632;BME280;58358;50.936;0.246;2023-03-01T08:29:25;102414.39;;;3.79;76.28
64632;BME280;58358;50.936;0.246;2023-03-01T08:31:51;102407.97;;;3.45;75.96
64632;BME280;58358;50.936;0.246;2023-03-01T08:34:17;102411.83;;;0.85;85.25
64632;BME280;58358;50.936;0.246;2023-03-01T08:36:43;102412.15;;;2.22;80.97
64632;BME280;58358;50.936;0.246;2023-03-01T08:39:09;102409.76;;;1.85;80.59
64632;BME280;58358;50.936;0.246;2023-03-01T08:41:32;102410.06;;;2.12;81.04
64632;BME280;58358;50.936;0.246;2023-03-01T08:43:58;102406.16;;;3.31;76.09
64632;BME280;58358;50.936;0.246;2023-03-01T08:46:24;102402.48;;;3.31;76.24
64632;BME280;58358;50.936;0.246;2023-03-01T08:48:49;102402.69;;;1.42;84.51
64632;BME280;58358;50.936;0.246;2023-03-01T08:51:17;102394.29;;;1.65;86.13
64632;BME280;58358;50.936;0.246;2023-03-01T08:53:40;102393.33;;;0.89;86.58
64632;BME280;58358;50.936;0.246;2023-03-01T08:56:06;102395.39;;;2.23;86.32
64632;BME280;58358;50.936;0.246;2023-03-01T08:58:31;102402.94;;;0.76;88.14
64632;BME280;58358;50.936;0.246;2023-03-01T09:00:56;102394.04;;;2.12;87.53
64632;BME280;58358;50.936;0.246;2023-03-01T09:03:22;102394.50;;;3.03;82.13
64632;BME280;58358;50.936;0.246;2023-03-01T09:05:47;102390.53;;;1.13;85.05
64632;BME280;58358;50.936;0.246;2023-03-01T09:08:13;102388.45;;;2.08;85.31
64632;BME280;58358;50.936;0.246;2023-03-01T09:10:39;102382.80;;;2.33;84.08
64632;BME280;58358;50.936;0.246;2023-03-01T09:13:05;102377.82;;;2.50;83.54
64632;BME280;58358;50.936;0.246;2023-03-01T09:15:30;102371.68;;;1.68;85.93
64632;BME280;58358;50.936;0.246;2023-03-01T09:17:56;102364.18;;;1.70;86.98
64632;BME280;58358;50.936;0.246;2023-03-01T09:20:21;102363.95;;;1.47;88.52
64632;BME280;58358;50.936;0.246;2023-03-01T09:22:47;102364.25;;;0.04;93.18
64632;BME280;58358;50.936;0.246;2023-03-01T09:25:12;102362.17;;;0.52;96.05
64632;BME280;58358;50.936;0.246;2023-03-01T09:27:38;102353.64;;;0.95;94.46
64632;BME280;58358;50.936;0.246;2023-03-01T09:30:04;102349.06;;;1.21;94.27
64632;BME280;58358;50.936;0.246;2023-03-01T09:32:30;102355.58;;;0.49;97.09
64632;BME280;58358;50.936;0.246;2023-03-01T09:34:54;102350.69;;;1.96;92.35
64632;BME280;58358;50.936;0.246;2023-03-01T09:37:19;102356.54;;;0.93;94.79
64632;BME280;58358;50.936;0.246;2023-03-01T09:39:44;102347.73;;;0.84;93.75
64632;BME280;58358;50.936;0.246;2023-03-01T09:42:12;102349.97;;;1.33;94.39
64632;BME280;58358;50.936;0.246;2023-03-01T09:44:40;102343.06;;;1.36;94.27
64632;BME280;58358;50.936;0.246;2023-03-01T09:47:00;102340.05;;;1.58;95.00
64632;BME280;58358;50.936;0.246;2023-03-01T09:49:27;102331.39;;;1.31;93.22
64632;BME280;58358;50.936;0.246;2023-03-01T09:52:00;102329.61;;;2.02;91.33
64632;BME280;58358;50.936;0.246;2023-03-01T09:54:17;102330.95;;;2.21;92.01
64632;BME280;58358;50.936;0.246;2023-03-01T09:56:47;102330.74;;;2.18;88.62
64632;BME280;58358;50.936;0.246;2023-03-01T09:59:18;102323.76;;;2.71;86.12
64632;BME280;58358;50.936;0.246;2023-03-01T10:01:37;102324.06;;;1.78;89.95
64632;BME280;58358;50.936;0.246;2023-03-01T10:04:08;102321.25;;;1.57;88.87
64632;BME280;58358;50.936;0.246;2023-03-01T10:06:24;102325.06;;;2.29;88.89
64632;BME280;58358;50.936;0.246;2023-03-01T10:08:54;102320.77;;;3.04;86.16
64632;BME280;58358;50.936;0.246;2023-03-01T10:11:21;102318.31;;;2.30;86.20
64632;BME280;58358;50.936;0.246;2023-03-01T10:13:46;102317.58;;;0.98;89.53
64632;BME280;58358;50.936;0.246;2023-03-01T10:16:11;102320.28;;;2.40;87.11
64632;BME280;58358;50.936;0.246;2023-03-01T10:18:33;102317.90;;;1.73;87.09
64632;BME280;58358;50.936;0.246;2023-03-01T10:21:00;102315.06;;;2.68;86.53
64632;BME280;58358;50.936;0.246;2023-03-01T10:23:23;102313.87;;;2.26;87.29
64632;BME280;58358;50.936;0.246;2023-03-01T10:25:59;102315.72;;;1.95;87.98
64632;BME280;58358;50.936;0.246;2023-03-01T10:28:17;102311.42;;;2.31;87.89
64632;BME280;58358;50.936;0.246;2023-03-01T10:30:40;102311.20;;;1.98;87.19
64632;BME280;58358;50.936;0.246;2023-03-01T10:33:10;102304.68;;;3.53;83.82
64632;BME280;58358;50.936;0.246;2023-03-01T10:35:33;102297.29;;;3.03;81.47
64632;BME280;58358;50.936;0.246;2023-03-01T10:37:58;102295.02;;;2.01;82.20
64632;BME280;58358;50.936;0.246;2023-03-01T10:40:21;102294.87;;;3.28;79.66
64632;BME280;58358;50.936;0.246;2023-03-01T10:42:48;102293.23;;;3.70;79.20
64632;BME280;58358;50.936;0.246;2023-03-01T10:45:19;102287.01;;;3.59;79.82
64632;BME280;58358;50.936;0.246;2023-03-01T10:47:37;102281.14;;;3.67;77.79
64632;BME280;58358;50.936;0.246;2023-03-01T10:50:05;102276.96;;;3.94;76.09
64632;BME280;58358;50.936;0.246;2023-03-01T10:52:32;102278.96;;;4.01;75.69
64632;BME280;58358;50.936;0.246;2023-03-01T10:54:56;102275.88;;;3.11;79.46
64632;BME280;58358;50.936;0.246;2023-03-01T10:57:31;102273.60;;;2.67;82.00
64632;BME280;58358;50.936;0.246;2023-03-01T10:59:46;102271.90;;;2.33;81.74
64632;BME280;58358;50.936;0.246;2023-03-01T11:02:17;102268.55;;;2.68;80.33
64632;BME280;58358;50.936;0.246;2023-03-01T11:04:38;102267.29;;;2.64;82.46
64632;BME280;58358;50.936;0.246;2023-03-01T11:07:02;102265.75;;;2.36;85.02
64632;BME280;58358;50.936;0.246;2023-03-01T11:09:32;102263.52;;;1.94;86.27
64632;BME280;58358;50.936;0.246;2023-03-01T11:11:54;102265.60;;;2.54;87.16
64632;BME280;58358;50.936;0.246;2023-03-01T11:14:22;102261.33;;;2.73;86.25
64632;BME280;58358;50.936;0.246;2023-03-01T11:16:47;102258.90;;;2.00;87.03
64632;BME280;58358;50.936;0.246;2023-03-01T11:19:20;102256.71;;;1.82;88.82
64632;BME280;58358;50.936;0.246;2023-03-01T11:21:38;102254.02;;;2.00;87.58
64632;BME280;58358;50.936;0.246;2023-03-01T11:24:01;102251.07;;;2.83;85.34
64632;BME280;58358;50.936;0.246;2023-03-01T11:26:27;102245.01;;;1.99;86.40
64632;BME280;58358;50.936;0.246;2023-03-01T11:28:54;102243.45;;;3.56;83.29
64632;BME280;58358;50.936;0.246;2023-03-01T11:31:18;102243.46;;;2.64;83.77
64632;BME280;58358;50.936;0.246;2023-03-01T11:33:47;102243.18;;;2.83;86.57
64632;BME280;58358;50.936;0.246;2023-03-01T11:36:27;102242.08;;;2.91;85.93
64632;BME280;58358;50.936;0.246;2023-03-01T11:38:35;102238.58;;;3.50;83.49
64632;BME280;58358;50.936;0.246;2023-03-01T11:41:04;102224.69;;;2.11;86.33
64632;BME280;58358;50.936;0.246;2023-03-01T11:43:31;102218.48;;;2.28;89.06
64632;BME280;58358;50.936;0.246;2023-03-01T11:46:07;102215.45;;;1.99;89.68
64632;BME280;58358;50.936;0.246;2023-03-01T11:48:25;102221.00;;;1.86;91.31
64632;BME280;58358;50.936;0.246;2023-03-01T11:50:41;102216.87;;;2.34;89.85
64632;BME280;58358;50.936;0.246;2023-03-01T11:53:20;102213.14;;;1.76;90.93
64632;BME280;58358;50.936;0.246;2023-03-01T11:55:40;102213.86;;;2.15;91.77
64632;BME280;58358;50.936;0.246;2023-03-01T11:58:08;102218.09;;;2.16;90.45
64632;BME280;58358;50.936;0.246;2023-03-01T12:00:35;102205.90;;;1.24;93.55
64632;BME280;58358;50.936;0.246;2023-03-01T12:05:24;102207.78;;;1.81;94.73
64632;BME280;58358;50.936;0.246;2023-03-01T12:07:42;102207.23;;;1.76;94.95
64632;BME280;58358;50.936;0.246;2023-03-01T12:10:20;102201.25;;;2.24;93.07
64632;BME280;58358;50.936;0.246;2023-03-01T12:12:36;102200.05;;;2.13;95.85
64632;BME280;58358;50.936;0.246;2023-03-01T12:15:08;102195.67;;;2.28;94.47
64632;BME280;58358;50.936;0.246;2023-03-01T12:17:41;102201.14;;;2.84;91.96
64632;BME280;58358;50.936;0.246;2023-03-01T12:19:58;102191.88;;;2.44;92.58
64632;BME280;58358;50.936;0.246;2023-03-01T12:22:23;102194.28;;;1.46;94.30
64632;BME280;58358;50.936;0.246;2023-03-01T12:24:50;102192.74;;;2.50;93.26
64632;BME280;58358;50.936;0.246;2023-03-01T12:27:17;102189.51;;;2.29;94.78
64632;BME280;58358;50.936;0.246;2023-03-01T12:29:33;102191.09;;;3.84;88.90
64632;BME280;58358;50.936;0.246;2023-03-01T12:32:06;102185.91;;;2.71;88.84
64632;BME280;58358;50.936;0.246;2023-03-01T12:34:32;102187.33;;;1.72;90.84
64632;BME280;58358;50.936;0.246;2023-03-01T12:36:54;102176.67;;;2.57;89.23
64632;BME280;58358;50.936;0.246;2023-03-01T12:39:23;102177.16;;;2.47;88.66
64632;BME280;58358;50.936;0.246;2023-03-01T12:41:43;102173.56;;;3.52;85.25
64632;BME280;58358;50.936;0.246;2023-03-01T12:44:10;102169.69;;;3.20;85.81
64632;BME280;58358;50.936;0.246;2023-03-01T12:46:36;102169.02;;;3.56;83.83
64632;BME280;58358;50.936;0.246;2023-03-01T12:48:59;102163.70;;;4.61;81.34